sensor_id;sensor_type;location;lat;lon;timestamp;pressure;altitude;pressure_sealevel;temperature;humidity
6020;BME280;3038;51.122;6.840;2022-12-18T00:02:09;102594.50;;;-3.93;79.32
6020;BME280;3038;51.122;6.840;2022-12-18T00:04:37;102585.03;;;-3.96;79.66
6020;BME280;3038;51.122;6.840;2022-12-18T00:07:03;102588.47;;;-3.97;79.76
6020;BME280;3038;51.122;6.840;2022-12-18T00:09:28;102592.81;;;-3.96;79.63
6020;BME280;3038;51.122;6.840;2022-12-18T00:11:54;102602.34;;;-3.96;79.35
6020;BME280;3038;51.122;6.840;2022-12-18T00:14:19;102607.53;;;-3.96;78.99
6020;BME280;3038;51.122;6.840;2022-12-18T00:16:45;102604.06;;;-3.98;79.08
6020;BME280;3038;51.122;6.840;2022-12-18T00:19:12;102597.16;;;-3.98;79.59
6020;BME280;3038;51.122;6.840;2022-12-18T00:21:37;102603.19;;;-3.97;78.93
6020;BME280;3038;51.122;6.840;2022-12-18T00:24:06;102608.38;;;-3.97;79.38
6020;BME280;3038;51.122;6.840;2022-12-18T00:26:33;102615.34;;;-3.99;79.15
6020;BME280;3038;51.122;6.840;2022-12-18T00:29:04;102621.41;;;-4.00;79.26
6020;BME280;3038;51.122;6.840;2022-12-18T00:31:30;102611.09;;;-4.05;79.23
6020;BME280;3038;51.122;6.840;2022-12-18T00:33:57;102605.06;;;-4.08;79.27
6020;BME280;3038;51.122;6.840;2022-12-18T00:36:25;102612.06;;;-4.14;79.44
6020;BME280;3038;51.122;6.840;2022-12-18T00:38:53;102616.41;;;-4.16;79.15
6020;BME280;3038;51.122;6.840;2022-12-18T00:41:18;102614.69;;;-4.17;79.19
6020;BME280;3038;51.122;6.840;2022-12-18T00:44:03;102618.16;;;-4.18;79.45
6020;BME280;3038;51.122;6.840;2022-12-18T00:46:28;102607.81;;;-4.21;79.56
6020;BME280;3038;51.122;6.840;2022-12-18T00:48:54;102598.31;;;-4.22;79.31
6020;BME280;3038;51.122;6.840;2022-12-18T00:51:19;102594.91;;;-4.24;79.45
6020;BME280;3038;51.122;6.840;2022-12-18T00:53:44;102593.13;;;-4.22;79.76
6020;BME280;3038;51.122;6.840;2022-12-18T00:56:10;102594.84;;;-4.21;79.59
6020;BME280;3038;51.122;6.840;2022-12-18T00:58:35;102597.44;;;-4.19;79.24
6020;BME280;3038;51.122;6.840;2022-12-18T01:01:00;102612.97;;;-4.18;78.97
6020;BME280;3038;51.122;6.840;2022-12-18T01:03:26;102612.09;;;-4.17;78.94
6020;BME280;3038;51.122;6.840;2022-12-18T01:05:51;102608.63;;;-4.16;79.11
6020;BME280;3038;51.122;6.840;2022-12-18T01:08:16;102592.19;;;-4.16;79.53
6020;BME280;3038;51.122;6.840;2022-12-18T01:10:42;102594.00;;;-4.20;79.53
6020;BME280;3038;51.122;6.840;2022-12-18T01:13:07;102584.47;;;-4.21;79.89
6020;BME280;3038;51.122;6.840;2022-12-18T01:15:33;102582.75;;;-4.22;78.95
6020;BME280;3038;51.122;6.840;2022-12-18T01:17:58;102596.59;;;-4.21;79.53
6020;BME280;3038;51.122;6.840;2022-12-18T01:20:24;102594.06;;;-4.27;79.72
6020;BME280;3038;51.122;6.840;2022-12-18T01:22:49;102599.28;;;-4.29;79.79
6020;BME280;3038;51.122;6.840;2022-12-18T01:25:14;102601.03;;;-4.31;79.08
6020;BME280;3038;51.122;6.840;2022-12-18T01:27:40;102603.69;;;-4.34;79.87
6020;BME280;3038;51.122;6.840;2022-12-18T01:30:06;102599.41;;;-4.38;79.93
6020;BME280;3038;51.122;6.840;2022-12-18T01:32:31;102601.16;;;-4.42;79.84
6020;BME280;3038;51.122;6.840;2022-12-18T01:34:57;102598.66;;;-4.49;79.45
6020;BME280;3038;51.122;6.840;2022-12-18T01:37:22;102595.22;;;-4.51;79.80
6020;BME280;3038;51.122;6.840;2022-12-18T01:39:47;102596.97;;;-4.53;79.89
6020;BME280;3038;51.122;6.840;2022-12-18T01:42:15;102607.41;;;-4.59;80.19
6020;BME280;3038;51.122;6.840;2022-12-18T01:47:48;102600.56;;;-4.63;79.97
6020;BME280;3038;51.122;6.840;2022-12-18T01:50:32;102596.25;;;-4.66;79.81
6020;BME280;3038;51.122;6.840;2022-12-18T01:53:14;102595.41;;;-4.70;80.29
6020;BME280;3038;51.122;6.840;2022-12-18T01:55:45;102597.19;;;-4.72;80.44
6020;BME280;3038;51.122;6.840;2022-12-18T01:58:11;102586.84;;;-4.76;80.51
6020;BME280;3038;51.122;6.840;2022-12-18T02:00:37;102595.53;;;-4.80;80.14
6020;BME280;3038;51.122;6.840;2022-12-18T02:03:02;102598.13;;;-4.80;80.69
6020;BME280;3038;51.122;6.840;2022-12-18T02:05:46;102594.66;;;-4.78;80.43
6020;BME280;3038;51.122;6.840;2022-12-18T02:08:20;102604.13;;;-4.74;81.27
6020;BME280;3038;51.122;6.840;2022-12-18T02:13:49;102595.47;;;-4.73;79.95
6020;BME280;3038;51.122;6.840;2022-12-18T02:16:24;102583.41;;;-4.77;80.99
6020;BME280;3038;51.122;6.840;2022-12-18T02:19:14;102583.38;;;-4.75;81.22
6020;BME280;3038;51.122;6.840;2022-12-18T02:22:01;102592.81;;;-4.67;81.30
6020;BME280;3038;51.122;6.840;2022-12-18T02:27:37;102604.00;;;-4.65;80.73
6020;BME280;3038;51.122;6.840;2022-12-18T02:30:05;102586.66;;;-4.59;80.28
6020;BME280;3038;51.122;6.840;2022-12-18T02:32:36;102595.28;;;-4.56;80.66
6020;BME280;3038;51.122;6.840;2022-12-18T02:35:06;102580.53;;;-4.51;80.71
6020;BME280;3038;51.122;6.840;2022-12-18T02:37:33;102574.47;;;-4.48;80.29
6020;BME280;3038;51.122;6.840;2022-12-18T02:40:02;102576.13;;;-4.46;80.51
6020;BME280;3038;51.122;6.840;2022-12-18T02:42:28;102562.31;;;-4.43;80.36
6020;BME280;3038;51.122;6.840;2022-12-18T02:44:54;102565.78;;;-4.44;80.37
6020;BME280;3038;51.122;6.840;2022-12-18T02:47:26;102564.00;;;-4.42;79.96
6020;BME280;3038;51.122;6.840;2022-12-18T02:58:12;102580.44;;;-4.43;80.19
6020;BME280;3038;51.122;6.840;2022-12-18T03:00:43;102580.47;;;-4.46;80.43
6020;BME280;3038;51.122;6.840;2022-12-18T03:03:23;102574.47;;;-4.48;80.73
6020;BME280;3038;51.122;6.840;2022-12-18T03:05:53;102576.16;;;-4.47;80.41
6020;BME280;3038;51.122;6.840;2022-12-18T03:08:23;102564.09;;;-4.48;80.68
6020;BME280;3038;51.122;6.840;2022-12-18T03:10:54;102569.22;;;-4.45;80.03
6020;BME280;3038;51.122;6.840;2022-12-18T03:13:26;102568.38;;;-4.46;80.38
6020;BME280;3038;51.122;6.840;2022-12-18T03:15:56;102568.38;;;-4.46;80.28
6020;BME280;3038;51.122;6.840;2022-12-18T03:18:30;102570.06;;;-4.43;80.74
6020;BME280;3038;51.122;6.840;2022-12-18T03:20:58;102561.38;;;-4.41;80.25
6020;BME280;3038;51.122;6.840;2022-12-18T03:23:27;102562.25;;;-4.38;80.35
6020;BME280;3038;51.122;6.840;2022-12-18T03:25:57;102553.63;;;-4.42;79.79
6020;BME280;3038;51.122;6.840;2022-12-18T03:28:27;102553.66;;;-4.45;79.87
6020;BME280;3038;51.122;6.840;2022-12-18T03:30:57;102546.78;;;-4.46;80.34
6020;BME280;3038;51.122;6.840;2022-12-18T03:33:30;102552.88;;;-4.50;80.07
6020;BME280;3038;51.122;6.840;2022-12-18T03:35:59;102553.75;;;-4.51;80.29
6020;BME280;3038;51.122;6.840;2022-12-18T03:38:25;102552.13;;;-4.58;80.35
6020;BME280;3038;51.122;6.840;2022-12-18T03:40:53;102558.22;;;-4.62;80.63
6020;BME280;3038;51.122;6.840;2022-12-18T03:43:46;102559.13;;;-4.67;80.84
6020;BME280;3038;51.122;6.840;2022-12-18T03:46:31;102567.78;;;-4.68;80.75
6020;BME280;3038;51.122;6.840;2022-12-18T03:49:25;102560.06;;;-4.74;80.33
6020;BME280;3038;51.122;6.840;2022-12-18T03:51:59;102561.84;;;-4.77;80.38
6020;BME280;3038;51.122;6.840;2022-12-18T03:54:27;102560.97;;;-4.79;80.70
6020;BME280;3038;51.122;6.840;2022-12-18T03:57:09;102548.91;;;-4.82;80.83
6020;BME280;3038;51.122;6.840;2022-12-18T03:59:37;102554.19;;;-4.91;80.83
6020;BME280;3038;51.122;6.840;2022-12-18T04:02:04;102551.63;;;-4.93;81.33
6020;BME280;3038;51.122;6.840;2022-12-18T04:04:33;102549.84;;;-4.89;81.25
6020;BME280;3038;51.122;6.840;2022-12-18T04:06:59;102549.00;;;-4.89;81.15
6020;BME280;3038;51.122;6.840;2022-12-18T04:09:25;102545.53;;;-4.90;80.94
6020;BME280;3038;51.122;6.840;2022-12-18T04:11:51;102532.66;;;-4.93;80.98
6020;BME280;3038;51.122;6.840;2022-12-18T04:14:17;102529.19;;;-4.95;81.09
6020;BME280;3038;51.122;6.840;2022-12-18T04:16:42;102533.50;;;-4.94;81.52
6020;BME280;3038;51.122;6.840;2022-12-18T04:19:07;102535.25;;;-4.96;81.57
6020;BME280;3038;51.122;6.840;2022-12-18T04:21:33;102543.03;;;-4.96;81.49
6020;BME280;3038;51.122;6.840;2022-12-18T04:23:58;102534.34;;;-4.94;81.29
6020;BME280;3038;51.122;6.840;2022-12-18T04:26:24;102533.47;;;-4.91;81.59
6020;BME280;3038;51.122;6.840;2022-12-18T04:28:49;102539.50;;;-4.87;81.38
6020;BME280;3038;51.122;6.840;2022-12-18T04:31:15;102533.38;;;-4.82;81.32
6020;BME280;3038;51.122;6.840;2022-12-18T04:33:40;102535.06;;;-4.78;81.22
6020;BME280;3038;51.122;6.840;2022-12-18T04:36:06;102536.72;;;-4.72;81.53
6020;BME280;3038;51.122;6.840;2022-12-18T04:38:31;102534.09;;;-4.71;81.30
6020;BME280;3038;51.122;6.840;2022-12-18T04:40:57;102534.97;;;-4.69;81.00
6020;BME280;3038;51.122;6.840;2022-12-18T04:43:23;102532.31;;;-4.66;81.26
6020;BME280;3038;51.122;6.840;2022-12-18T04:45:48;102537.50;;;-4.64;81.37
6020;BME280;3038;51.122;6.840;2022-12-18T04:48:13;102531.44;;;-4.65;80.93
6020;BME280;3038;51.122;6.840;2022-12-18T04:50:39;102529.75;;;-4.67;81.00
6020;BME280;3038;51.122;6.840;2022-12-18T04:53:04;102531.50;;;-4.68;80.94
6020;BME280;3038;51.122;6.840;2022-12-18T04:55:30;102517.66;;;-4.67;80.94
6020;BME280;3038;51.122;6.840;2022-12-18T04:57:55;102518.53;;;-4.68;80.77
6020;BME280;3038;51.122;6.840;2022-12-18T05:00:21;102515.94;;;-4.68;81.00
6020;BME280;3038;51.122;6.840;2022-12-18T05:02:46;102516.00;;;-4.72;80.82
6020;BME280;3038;51.122;6.840;2022-12-18T05:05:11;102507.41;;;-4.76;81.07
6020;BME280;3038;51.122;6.840;2022-12-18T05:07:37;102510.00;;;-4.76;80.99
6020;BME280;3038;51.122;6.840;2022-12-18T05:10:04;102509.16;;;-4.78;80.87
6020;BME280;3038;51.122;6.840;2022-12-18T05:12:32;102505.72;;;-4.80;81.07
6020;BME280;3038;51.122;6.840;2022-12-18T05:14:58;102504.00;;;-4.81;81.41
6020;BME280;3038;51.122;6.840;2022-12-18T05:17:23;102509.22;;;-4.84;81.29
6020;BME280;3038;51.122;6.840;2022-12-18T05:19:48;102515.28;;;-4.85;81.06
6020;BME280;3038;51.122;6.840;2022-12-18T05:22:14;102517.03;;;-4.87;81.44
6020;BME280;3038;51.122;6.840;2022-12-18T05:24:39;102512.69;;;-4.85;81.03
6020;BME280;3038;51.122;6.840;2022-12-18T05:27:04;102512.69;;;-4.85;81.21
6020;BME280;3038;51.122;6.840;2022-12-18T05:29:30;102507.47;;;-4.82;81.67
6020;BME280;3038;51.122;6.840;2022-12-18T05:31:55;102514.38;;;-4.81;81.29
6020;BME280;3038;51.122;6.840;2022-12-18T05:34:20;102517.78;;;-4.79;81.14
6020;BME280;3038;51.122;6.840;2022-12-18T05:36:46;102522.09;;;-4.79;81.15
6020;BME280;3038;51.122;6.840;2022-12-18T05:39:11;102530.72;;;-4.79;81.29
6020;BME280;3038;51.122;6.840;2022-12-18T05:41:37;102523.91;;;-4.83;81.38
6020;BME280;3038;51.122;6.840;2022-12-18T05:44:02;102527.34;;;-4.84;80.95
6020;BME280;3038;51.122;6.840;2022-12-18T05:46:27;102544.66;;;-4.86;81.41
6020;BME280;3038;51.122;6.840;2022-12-18T05:48:53;102547.25;;;-4.86;81.46
6020;BME280;3038;51.122;6.840;2022-12-18T05:51:20;102538.63;;;-4.88;81.52
6020;BME280;3038;51.122;6.840;2022-12-18T05:53:47;102549.00;;;-4.88;81.41
6020;BME280;3038;51.122;6.840;2022-12-18T05:56:20;102549.00;;;-4.89;81.12
6020;BME280;3038;51.122;6.840;2022-12-18T05:58:46;102558.53;;;-4.92;81.71
6020;BME280;3038;51.122;6.840;2022-12-18T06:01:15;102569.75;;;-4.91;81.48
6020;BME280;3038;51.122;6.840;2022-12-18T06:03:40;102565.44;;;-4.94;81.39
6020;BME280;3038;51.122;6.840;2022-12-18T06:06:20;102569.81;;;-4.97;81.50
6020;BME280;3038;51.122;6.840;2022-12-18T06:08:46;102575.88;;;-5.00;81.68
6020;BME280;3038;51.122;6.840;2022-12-18T06:11:11;102578.47;;;-5.01;81.59
6020;BME280;3038;51.122;6.840;2022-12-18T06:13:38;102581.06;;;-5.01;81.25
6020;BME280;3038;51.122;6.840;2022-12-18T06:16:07;102588.81;;;-5.00;80.93
6020;BME280;3038;51.122;6.840;2022-12-18T06:18:33;102592.25;;;-4.99;81.31
6020;BME280;3038;51.122;6.840;2022-12-18T06:21:02;102592.25;;;-4.99;81.36
6020;BME280;3038;51.122;6.840;2022-12-18T06:23:27;102593.13;;;-5.00;81.23
6020;BME280;3038;51.122;6.840;2022-12-18T06:25:53;102594.84;;;-4.99;81.41
6020;BME280;3038;51.122;6.840;2022-12-18T06:28:18;102597.41;;;-4.96;81.18
6020;BME280;3038;51.122;6.840;2022-12-18T06:30:45;102591.38;;;-4.97;81.05
6020;BME280;3038;51.122;6.840;2022-12-18T06:33:10;102590.47;;;-4.94;80.96
6020;BME280;3038;51.122;6.840;2022-12-18T06:35:36;102581.88;;;-4.93;81.32
6020;BME280;3038;51.122;6.840;2022-12-18T06:38:02;102572.34;;;-4.93;81.48
6020;BME280;3038;51.122;6.840;2022-12-18T06:40:27;102565.41;;;-4.91;81.25
6020;BME280;3038;51.122;6.840;2022-12-18T06:42:53;102561.09;;;-4.90;80.79
6020;BME280;3038;51.122;6.840;2022-12-18T06:45:18;102569.72;;;-4.88;81.23
6020;BME280;3038;51.122;6.840;2022-12-18T06:47:44;102566.25;;;-4.88;80.89
6020;BME280;3038;51.122;6.840;2022-12-18T06:50:09;102555.91;;;-4.90;81.27
6020;BME280;3038;51.122;6.840;2022-12-18T06:52:35;102559.38;;;-4.91;81.43
6020;BME280;3038;51.122;6.840;2022-12-18T06:55:00;102547.31;;;-4.94;81.22
6020;BME280;3038;51.122;6.840;2022-12-18T06:57:26;102548.19;;;-4.93;81.17
6020;BME280;3038;51.122;6.840;2022-12-18T06:59:51;102543.84;;;-4.91;81.18
6020;BME280;3038;51.122;6.840;2022-12-18T07:02:16;102545.53;;;-4.90;81.40
6020;BME280;3038;51.122;6.840;2022-12-18T07:04:42;102545.53;;;-4.88;81.49
6020;BME280;3038;51.122;6.840;2022-12-18T07:07:08;102533.47;;;-4.88;81.46
6020;BME280;3038;51.122;6.840;2022-12-18T07:09:33;102536.03;;;-4.86;81.47
6020;BME280;3038;51.122;6.840;2022-12-18T07:11:58;102533.47;;;-4.88;81.34
6020;BME280;3038;51.122;6.840;2022-12-18T07:14:24;102542.06;;;-4.86;81.66
6020;BME280;3038;51.122;6.840;2022-12-18T07:16:49;102549.81;;;-4.84;81.43
6020;BME280;3038;51.122;6.840;2022-12-18T07:19:14;102548.91;;;-4.82;81.21
6020;BME280;3038;51.122;6.840;2022-12-18T07:21:40;102542.00;;;-4.81;81.03
6020;BME280;3038;51.122;6.840;2022-12-18T07:24:05;102542.84;;;-4.79;81.08
6020;BME280;3038;51.122;6.840;2022-12-18T07:26:31;102534.13;;;-4.72;81.16
6020;BME280;3038;51.122;6.840;2022-12-18T07:28:57;102534.06;;;-4.66;81.12
6020;BME280;3038;51.122;6.840;2022-12-18T07:31:23;102535.72;;;-4.59;80.68
6020;BME280;3038;51.122;6.840;2022-12-18T07:33:50;102539.13;;;-4.57;80.86
6020;BME280;3038;51.122;6.840;2022-12-18T07:36:16;102527.88;;;-4.54;80.54
6020;BME280;3038;51.122;6.840;2022-12-18T07:38:41;102534.69;;;-4.47;80.13
6020;BME280;3038;51.122;6.840;2022-12-18T07:41:09;102532.91;;;-4.42;80.04
6020;BME280;3038;51.122;6.840;2022-12-18T07:43:35;102526.78;;;-4.36;79.61
6020;BME280;3038;51.122;6.840;2022-12-18T07:46:01;102530.19;;;-4.33;79.97
6020;BME280;3038;51.122;6.840;2022-12-18T07:48:27;102520.63;;;-4.28;79.62
6020;BME280;3038;51.122;6.840;2022-12-18T07:50:53;102530.06;;;-4.24;79.66
6020;BME280;3038;51.122;6.840;2022-12-18T07:53:18;102529.16;;;-4.20;79.37
6020;BME280;3038;51.122;6.840;2022-12-18T07:55:44;102541.22;;;-4.16;79.41
6020;BME280;3038;51.122;6.840;2022-12-18T07:58:09;102532.47;;;-4.11;79.43
6020;BME280;3038;51.122;6.840;2022-12-18T08:00:35;102522.94;;;-4.08;79.26
6020;BME280;3038;51.122;6.840;2022-12-18T08:03:00;102516.84;;;-4.05;79.05
6020;BME280;3038;51.122;6.840;2022-12-18T08:05:26;102508.19;;;-4.04;78.99
6020;BME280;3038;51.122;6.840;2022-12-18T08:07:52;102505.56;;;-4.03;78.72
6020;BME280;3038;51.122;6.840;2022-12-18T08:10:18;102513.31;;;-4.00;78.82
6020;BME280;3038;51.122;6.840;2022-12-18T08:12:44;102499.50;;;-4.00;79.24
6020;BME280;3038;51.122;6.840;2022-12-18T08:15:09;102501.94;;;-3.93;78.46
6020;BME280;3038;51.122;6.840;2022-12-18T08:17:35;102503.63;;;-3.89;78.65
6020;BME280;3038;51.122;6.840;2022-12-18T08:20:00;102493.19;;;-3.84;78.99
6020;BME280;3038;51.122;6.840;2022-12-18T08:22:25;102488.72;;;-3.76;78.75
6020;BME280;3038;51.122;6.840;2022-12-18T08:24:51;102479.94;;;-3.67;78.37
6020;BME280;3038;51.122;6.840;2022-12-18T08:27:16;102475.50;;;-3.60;77.90
6020;BME280;3038;51.122;6.840;2022-12-18T08:29:42;102467.56;;;-3.51;77.45
6020;BME280;3038;51.122;6.840;2022-12-18T08:32:07;102463.09;;;-3.45;77.06
6020;BME280;3038;51.122;6.840;2022-12-18T08:34:33;102468.16;;;-3.39;77.18
6020;BME280;3038;51.122;6.840;2022-12-18T08:36:58;102467.13;;;-3.27;76.93
6020;BME280;3038;51.122;6.840;2022-12-18T08:39:23;102454.09;;;-3.24;76.57
6020;BME280;3038;51.122;6.840;2022-12-18T08:41:49;102453.16;;;-3.21;76.39
6020;BME280;3038;51.122;6.840;2022-12-18T08:44:34;102461.66;;;-3.13;76.41
6020;BME280;3038;51.122;6.840;2022-12-18T08:47:03;102463.19;;;-3.03;76.35
6020;BME280;3038;51.122;6.840;2022-12-18T08:49:28;102464.81;;;-2.97;76.08
6020;BME280;3038;51.122;6.840;2022-12-18T08:51:55;102455.19;;;-2.92;75.86
6020;BME280;3038;51.122;6.840;2022-12-18T08:54:20;102454.09;;;-2.82;76.15
6020;BME280;3038;51.122;6.840;2022-12-18T08:56:45;102452.97;;;-2.69;75.33
6020;BME280;3038;51.122;6.840;2022-12-18T08:59:11;102451.03;;;-2.59;75.37
6020;BME280;3038;51.122;6.840;2022-12-18T09:01:36;102457.78;;;-2.52;74.99
6020;BME280;3038;51.122;6.840;2022-12-18T09:04:02;102461.06;;;-2.42;74.78
6020;BME280;3038;51.122;6.840;2022-12-18T09:06:27;102460.84;;;-2.33;74.85
6020;BME280;3038;51.122;6.840;2022-12-18T09:08:52;102460.69;;;-2.25;74.79
6020;BME280;3038;51.122;6.840;2022-12-18T09:11:25;102460.53;;;-2.19;74.36
6020;BME280;3038;51.122;6.840;2022-12-18T09:13:52;102457.03;;;-2.18;74.26
6020;BME280;3038;51.122;6.840;2022-12-18T09:16:19;102456.13;;;-2.16;73.39
6020;BME280;3038;51.122;6.840;2022-12-18T09:18:45;102461.28;;;-2.13;73.70
6020;BME280;3038;51.122;6.840;2022-12-18T09:21:14;102459.47;;;-2.11;73.79
6020;BME280;3038;51.122;6.840;2022-12-18T09:23:39;102447.22;;;-2.05;73.78
6020;BME280;3038;51.122;6.840;2022-12-18T09:26:05;102436.53;;;-1.93;73.53
6020;BME280;3038;51.122;6.840;2022-12-18T09:28:31;102448.25;;;-1.77;73.08
6020;BME280;3038;51.122;6.840;2022-12-18T09:30:56;102461.63;;;-1.57;72.26
6020;BME280;3038;51.122;6.840;2022-12-18T09:33:22;102456.69;;;-1.33;71.47
6020;BME280;3038;51.122;6.840;2022-12-18T09:35:47;102437.69;;;-1.06;70.33
6020;BME280;3038;51.122;6.840;2022-12-18T09:38:15;102432.84;;;-0.88;70.22
6020;BME280;3038;51.122;6.840;2022-12-18T09:40:47;102428.00;;;-0.71;69.30
6020;BME280;3038;51.122;6.840;2022-12-18T09:43:19;102423.50;;;-0.66;68.64
6020;BME280;3038;51.122;6.840;2022-12-18T09:45:49;102425.00;;;-0.57;68.61
6020;BME280;3038;51.122;6.840;2022-12-18T09:48:25;102421.28;;;-0.50;68.08
6020;BME280;3038;51.122;6.840;2022-12-18T09:50:55;102421.78;;;-0.39;67.75
6020;BME280;3038;51.122;6.840;2022-12-18T09:53:24;102422.63;;;-0.37;67.61
6020;BME280;3038;51.122;6.840;2022-12-18T09:55:52;102424.31;;;-0.36;67.74
6020;BME280;3038;51.122;6.840;2022-12-18T09:58:30;102420.78;;;-0.33;67.55
6020;BME280;3038;51.122;6.840;2022-12-18T10:00:57;102421.75;;;-0.37;67.20
6020;BME280;3038;51.122;6.840;2022-12-18T10:03:22;102412.97;;;-0.35;67.38
6020;BME280;3038;51.122;6.840;2022-12-18T10:06:24;102405.69;;;-0.25;66.90
6020;BME280;3038;51.122;6.840;2022-12-18T10:09:24;102410.03;;;-0.24;66.63
6020;BME280;3038;51.122;6.840;2022-12-18T10:12:25;102406.94;;;-0.09;66.25
6020;BME280;3038;51.122;6.840;2022-12-18T10:18:06;102388.06;;;0.10;65.45
6020;BME280;3038;51.122;6.840;2022-12-18T10:20:45;102381.72;;;0.17;65.73
6020;BME280;3038;51.122;6.840;2022-12-18T10:26:02;102384.16;;;0.71;66.58
6020;BME280;3038;51.122;6.840;2022-12-18T10:28:30;102388.19;;;0.80;64.22
6020;BME280;3038;51.122;6.840;2022-12-18T10:30:56;102390.13;;;0.75;63.39
6020;BME280;3038;51.122;6.840;2022-12-18T10:33:27;102386.16;;;0.88;64.15
6020;BME280;3038;51.122;6.840;2022-12-18T10:35:53;102388.13;;;1.05;63.61
6020;BME280;3038;51.122;6.840;2022-12-18T10:38:24;102369.31;;;1.19;63.03
6020;BME280;3038;51.122;6.840;2022-12-18T10:40:58;102369.34;;;1.41;62.35
6020;BME280;3038;51.122;6.840;2022-12-18T10:43:35;102360.50;;;1.43;61.89
6020;BME280;3038;51.122;6.840;2022-12-18T10:48:35;102369.63;;;1.33;61.70
6020;BME280;3038;51.122;6.840;2022-12-18T10:51:02;102363.25;;;1.40;61.35
6020;BME280;3038;51.122;6.840;2022-12-18T10:53:30;102351.41;;;1.30;61.36
6020;BME280;3038;51.122;6.840;2022-12-18T10:55:58;102353.44;;;1.23;61.69
6020;BME280;3038;51.122;6.840;2022-12-18T11:06:22;102331.94;;;1.59;60.20
6020;BME280;3038;51.122;6.840;2022-12-18T11:08:59;102331.28;;;1.54;59.66
6020;BME280;3038;51.122;6.840;2022-12-18T11:11:26;102323.38;;;1.56;60.53
6020;BME280;3038;51.122;6.840;2022-12-18T11:14:06;102331.56;;;1.68;59.30
6020;BME280;3038;51.122;6.840;2022-12-18T11:16:51;102335.13;;;1.88;58.94
6020;BME280;3038;51.122;6.840;2022-12-18T11:19:24;102346.06;;;1.77;58.77
6020;BME280;3038;51.122;6.840;2022-12-18T11:21:51;102337.06;;;1.84;59.45
6020;BME280;3038;51.122;6.840;2022-12-18T11:24:29;102326.44;;;1.87;59.22
6020;BME280;3038;51.122;6.840;2022-12-18T11:26:58;102336.63;;;1.93;58.82
6020;BME280;3038;51.122;6.840;2022-12-18T11:29:35;102321.44;;;1.81;58.96
6020;BME280;3038;51.122;6.840;2022-12-18T11:32:25;102331.94;;;1.81;58.78
6020;BME280;3038;51.122;6.840;2022-12-18T11:34:59;102313.31;;;1.67;58.76
6020;BME280;3038;51.122;6.840;2022-12-18T11:37:26;102302.94;;;1.43;59.71
6020;BME280;3038;51.122;6.840;2022-12-18T11:40:03;102308.72;;;1.29;60.05
6020;BME280;3038;51.122;6.840;2022-12-18T11:42:45;102290.47;;;1.28;60.95
6020;BME280;3038;51.122;6.840;2022-12-18T11:50:31;102289.75;;;1.02;61.34
6020;BME280;3038;51.122;6.840;2022-12-18T11:52:58;102286.56;;;0.94;61.98
6020;BME280;3038;51.122;6.840;2022-12-18T11:58:24;102288.94;;;0.77;62.62
6020;BME280;3038;51.122;6.840;2022-12-18T12:01:13;102295.09;;;0.76;62.85
6020;BME280;3038;51.122;6.840;2022-12-18T12:09:20;102295.91;;;0.78;62.99
6020;BME280;3038;51.122;6.840;2022-12-18T12:12:16;102285.44;;;0.78;62.96
6020;BME280;3038;51.122;6.840;2022-12-18T12:15:34;102286.47;;;0.74;62.59
6020;BME280;3038;51.122;6.840;2022-12-18T12:18:43;102290.69;;;0.78;63.15
6020;BME280;3038;51.122;6.840;2022-12-18T12:21:29;102278.47;;;0.79;63.22
6020;BME280;3038;51.122;6.840;2022-12-18T12:24:20;102275.94;;;0.75;62.93
6020;BME280;3038;51.122;6.840;2022-12-18T12:40:01;102267.16;;;0.55;62.91
6020;BME280;3038;51.122;6.840;2022-12-18T12:42:58;102264.66;;;0.51;63.23
6020;BME280;3038;51.122;6.840;2022-12-18T12:45:54;102245.94;;;0.40;63.39
6020;BME280;3038;51.122;6.840;2022-12-18T12:51:20;102247.69;;;0.40;64.13
6020;BME280;3038;51.122;6.840;2022-12-18T12:53:46;102260.69;;;0.41;64.13
6020;BME280;3038;51.122;6.840;2022-12-18T12:56:15;102262.38;;;0.42;63.93
6020;BME280;3038;51.122;6.840;2022-12-18T12:58:43;102254.38;;;0.47;64.12
6020;BME280;3038;51.122;6.840;2022-12-18T13:07:10;102260.78;;;0.62;63.82
6020;BME280;3038;51.122;6.840;2022-12-18T13:13:04;102252.59;;;0.71;64.17
6020;BME280;3038;51.122;6.840;2022-12-18T13:15:37;102249.06;;;0.72;64.12
6020;BME280;3038;51.122;6.840;2022-12-18T13:20:39;102253.09;;;0.59;63.40
6020;BME280;3038;51.122;6.840;2022-12-18T13:25:50;102247.84;;;0.59;63.81
6020;BME280;3038;51.122;6.840;2022-12-18T13:28:20;102234.81;;;0.57;64.09
6020;BME280;3038;51.122;6.840;2022-12-18T13:40:57;102206.56;;;0.21;64.54
6020;BME280;3038;51.122;6.840;2022-12-18T13:43:43;102196.72;;;0.28;64.22
6020;BME280;3038;51.122;6.840;2022-12-18T13:51:43;102203.97;;;0.21;64.48
6020;BME280;3038;51.122;6.840;2022-12-18T13:56:44;102200.84;;;0.12;64.37
6020;BME280;3038;51.122;6.840;2022-12-18T13:59:24;102195.72;;;0.09;65.19
6020;BME280;3038;51.122;6.840;2022-12-18T14:04:26;102189.19;;;-0.03;65.10
6020;BME280;3038;51.122;6.840;2022-12-18T14:09:29;102186.81;;;-0.09;64.97
6020;BME280;3038;51.122;6.840;2022-12-18T14:11:56;102180.00;;;-0.13;65.36
6020;BME280;3038;51.122;6.840;2022-12-18T14:14:47;102179.94;;;-0.12;65.42
6020;BME280;3038;51.122;6.840;2022-12-18T14:17:15;102182.63;;;-0.15;64.82
6020;BME280;3038;51.122;6.840;2022-12-18T14:19:42;102167.19;;;-0.21;65.47
6020;BME280;3038;51.122;6.840;2022-12-18T14:22:15;102170.72;;;-0.22;65.29
6020;BME280;3038;51.122;6.840;2022-12-18T14:24:41;102173.44;;;-0.25;65.58
6020;BME280;3038;51.122;6.840;2022-12-18T14:27:22;102170.88;;;-0.27;66.00
6020;BME280;3038;51.122;6.840;2022-12-18T14:29:49;102177.03;;;-0.28;66.09
6020;BME280;3038;51.122;6.840;2022-12-18T14:34:43;102164.88;;;-0.29;65.79
6020;BME280;3038;51.122;6.840;2022-12-18T14:37:10;102166.63;;;-0.29;66.23
6020;BME280;3038;51.122;6.840;2022-12-18T14:39:36;102148.41;;;-0.31;66.22
6020;BME280;3038;51.122;6.840;2022-12-18T14:42:02;102156.25;;;-0.31;66.27
6020;BME280;3038;51.122;6.840;2022-12-18T14:44:27;102167.53;;;-0.30;66.64
6020;BME280;3038;51.122;6.840;2022-12-18T14:46:53;102157.31;;;-0.36;65.90
6020;BME280;3038;51.122;6.840;2022-12-18T14:49:30;102160.94;;;-0.40;65.95
6020;BME280;3038;51.122;6.840;2022-12-18T14:52:01;102148.00;;;-0.43;66.28
6020;BME280;3038;51.122;6.840;2022-12-18T14:54:28;102150.63;;;-0.43;66.49
6020;BME280;3038;51.122;6.840;2022-12-18T14:57:19;102145.41;;;-0.43;66.78
6020;BME280;3038;51.122;6.840;2022-12-18T14:59:46;102143.81;;;-0.47;66.63
6020;BME280;3038;51.122;6.840;2022-12-18T15:02:21;102134.31;;;-0.50;66.83
6020;BME280;3038;51.122;6.840;2022-12-18T15:05:14;102133.38;;;-0.47;66.25
6020;BME280;3038;51.122;6.840;2022-12-18T15:07:44;102135.22;;;-0.51;66.12
6020;BME280;3038;51.122;6.840;2022-12-18T15:12:45;102124.19;;;-0.59;67.08